Time;durP1;ratioP1;P1;durP2;ratioP2;P2;SDS_P1;SDS_P2;PMS_P1;PMS_P2;Temp;Humidity;BMP_temperature;BMP_pressure;BME280_temperature;BME280_humidity;BME280_pressure;Samples;Min_cycle;Max_cycle;Signal;HPM_P1;HPM_P2
2021/12/30 00:01:33;;;;;;;;;;;22.30;53.40;;;;;;6336387;27;20030;-46
2021/12/30 00:04:35;;;;;;;;;;;22.30;53.30;;;;;;6322833;27;20421;-44
2021/12/30 00:07:37;;;;;;;;;;;22.70;53.60;;;;;;6339445;27;19931;-46
2021/12/30 00:10:40;;;;;;;;;;;22.50;53.50;;;;;;6334247;27;19927;-44
2021/12/30 00:13:45;;;;;;;;;;;22.20;53.30;;;;;;6343125;27;20451;-44
2021/12/30 00:16:46;;;;;;;;;;;22.50;53.60;;;;;;6324453;27;20042;-44
2021/12/30 00:19:48;;;;;;;;;;;22.50;53.50;;;;;;6321357;27;19923;-48
2021/12/30 00:22:49;;;;;;;;;;;22.70;53.70;;;;;;6310793;27;20390;-44
2021/12/30 00:25:51;;;;;;;;;;;22.50;53.50;;;;;;6304431;27;20283;-43
2021/12/30 00:28:53;;;;;;;;;;;23.10;53.90;;;;;;6329818;27;19930;-44
2021/12/30 00:31:56;;;;;;;;;;;22.30;53.40;;;;;;6339893;27;20809;-46
2021/12/30 00:34:57;;;;;;;;;;;22.30;53.40;;;;;;6326228;27;20054;-45
2021/12/30 00:37:59;;;;;;;;;;;22.20;53.40;;;;;;6325578;27;19927;-45
2021/12/30 00:41:01;;;;;;;;;;;22.30;53.50;;;;;;6320448;27;19980;-44
2021/12/30 00:44:02;;;;;;;;;;;22.60;53.70;;;;;;6322356;27;19941;-45
2021/12/30 00:47:04;;;;;;;;;;;22.30;53.40;;;;;;6331976;27;20042;-45
2021/12/30 00:50:06;;;;;;;;;;;22.70;53.70;;;;;;6335785;27;20669;-45
2021/12/30 00:53:08;;;;;;;;;;;22.60;53.60;;;;;;6324308;27;20070;-46
2021/12/30 00:56:10;;;;;;;;;;;22.60;53.70;;;;;;6305356;27;20064;-44
2021/12/30 00:59:11;;;;;;;;;;;22.20;53.40;;;;;;6340645;27;19927;-43
2021/12/30 01:02:13;;;;;;;;;;;22.20;53.40;;;;;;6325476;27;19976;-46
2021/12/30 01:05:15;;;;;;;;;;;22.60;53.70;;;;;;6315716;27;19927;-47
2021/12/30 01:08:17;;;;;;;;;;;21.80;53.80;;;;;;6344809;27;20429;-44
2021/12/30 01:11:22;;;;;;;;;;;22.20;53.40;;;;;;6332872;27;20383;-44
2021/12/30 01:14:27;;;;;;;;;;;22.10;53.40;;;;;;6305219;27;19959;-44
2021/12/30 01:17:42;;;;;;;;;;;22.40;53.60;;;;;;6323779;27;19935;-44
2021/12/30 01:20:44;;;;;;;;;;;22.00;53.40;;;;;;6321422;27;19960;-45
2021/12/30 01:23:45;;;;;;;;;;;22.50;53.50;;;;;;6340935;27;19928;-44
2021/12/30 01:26:47;;;;;;;;;;;22.60;53.70;;;;;;6328091;27;19927;-46
2021/12/30 01:29:50;;;;;;;;;;;22.20;53.50;;;;;;6325498;27;19927;-46
2021/12/30 01:32:51;;;;;;;;;;;22.40;53.70;;;;;;6322087;27;19978;-44
2021/12/30 01:35:52;;;;;;;;;;;22.40;53.60;;;;;;6321655;27;20657;-44
2021/12/30 01:38:54;;;;;;;;;;;22.30;53.50;;;;;;6320710;27;19959;-45
2021/12/30 01:41:58;;;;;;;;;;;22.20;53.40;;;;;;6324876;27;19931;-46
2021/12/30 01:45:00;;;;;;;;;;;22.10;53.40;;;;;;6347190;27;19926;-44
2021/12/30 01:48:01;;;;;;;;;;;22.10;53.40;;;;;;6334859;27;19961;-48
2021/12/30 01:51:04;;;;;;;;;;;22.50;53.60;;;;;;6324562;27;19927;-46
2021/12/30 01:54:06;;;;;;;;;;;22.40;53.60;;;;;;6326402;27;20038;-46
2021/12/30 01:57:08;;;;;;;;;;;22.60;53.70;;;;;;6329650;27;20352;-44
2021/12/30 02:00:11;;;;;;;;;;;22.20;53.50;;;;;;6323839;27;19934;-44
2021/12/30 02:03:14;;;;;;;;;;;22.10;53.40;;;;;;6326556;27;19931;-44
2021/12/30 02:06:16;;;;;;;;;;;22.20;53.40;;;;;;6329598;27;20390;-44
2021/12/30 02:09:19;;;;;;;;;;;22.20;53.60;;;;;;6332585;27;19923;-44
2021/12/30 02:12:22;;;;;;;;;;;22.40;53.60;;;;;;6325569;27;19924;-44
2021/12/30 02:15:23;;;;;;;;;;;22.50;53.70;;;;;;6323409;27;20017;-44
2021/12/30 02:18:24;;;;;;;;;;;22.20;53.50;;;;;;6336815;27;19935;-44
2021/12/30 02:21:27;;;;;;;;;;;22.40;53.60;;;;;;6340052;27;19928;-44
2021/12/30 02:24:28;;;;;;;;;;;22.70;54.20;;;;;;6324419;27;19935;-44
2021/12/30 02:27:29;;;;;;;;;;;22.20;53.50;;;;;;6326751;27;19939;-44
2021/12/30 02:30:31;;;;;;;;;;;22.20;53.60;;;;;;6318741;27;20072;-44
2021/12/30 02:33:32;;;;;;;;;;;22.60;53.80;;;;;;6329623;27;19924;-45
2021/12/30 02:36:35;;;;;;;;;;;22.50;53.70;;;;;;6333584;27;20340;-44
2021/12/30 02:39:36;;;;;;;;;;;22.50;53.80;;;;;;6323848;27;20039;-44
2021/12/30 02:42:38;;;;;;;;;;;22.20;53.60;;;;;;6327785;27;20263;-44
2021/12/30 02:45:39;;;;;;;;;;;22.40;53.70;;;;;;6323508;27;20087;-44
2021/12/30 02:48:41;;;;;;;;;;;22.20;53.60;;;;;;6319969;27;19923;-43
2021/12/30 02:51:43;;;;;;;;;;;22.60;53.80;;;;;;6338481;27;20014;-44
2021/12/30 02:54:44;;;;;;;;;;;22.70;53.80;;;;;;6347312;27;20717;-44
2021/12/30 02:57:46;;;;;;;;;;;22.50;53.70;;;;;;6336852;27;19927;-44
2021/12/30 03:00:48;;;;;;;;;;;22.10;53.50;;;;;;6342400;27;20489;-44
2021/12/30 03:03:50;;;;;;;;;;;22.10;53.50;;;;;;6306989;27;20437;-44
2021/12/30 03:06:51;;;;;;;;;;;22.00;53.40;;;;;;6305301;27;20072;-44
2021/12/30 03:09:53;;;;;;;;;;;22.10;53.50;;;;;;6331572;27;19955;-44
2021/12/30 03:12:57;;;;;;;;;;;22.10;53.50;;;;;;6337579;27;20381;-44
2021/12/30 03:16:00;;;;;;;;;;;22.30;53.60;;;;;;6327919;27;19934;-44
2021/12/30 03:19:02;;;;;;;;;;;22.00;53.40;;;;;;6325386;27;19931;-44
2021/12/30 03:22:04;;;;;;;;;;;22.10;53.40;;;;;;6326129;27;20207;-44
2021/12/30 03:25:07;;;;;;;;;;;22.40;53.60;;;;;;6321628;27;19951;-44
2021/12/30 03:28:08;;;;;;;;;;;22.30;53.50;;;;;;6328193;27;20966;-44
2021/12/30 03:31:11;;;;;;;;;;;22.40;53.60;;;;;;6348107;27;20923;-44
2021/12/30 03:34:12;;;;;;;;;;;22.50;53.60;;;;;;6332276;27;20252;-44
2021/12/30 03:37:14;;;;;;;;;;;22.20;53.50;;;;;;6326216;27;19972;-43
2021/12/30 03:40:16;;;;;;;;;;;22.10;53.40;;;;;;6320147;27;20339;-45
2021/12/30 03:43:18;;;;;;;;;;;22.10;53.40;;;;;;6324699;27;19923;-45
2021/12/30 03:46:20;;;;;;;;;;;22.10;53.40;;;;;;6318881;27;20257;-48
2021/12/30 03:49:21;;;;;;;;;;;22.50;53.70;;;;;;6347574;27;19982;-46
2021/12/30 03:52:28;;;;;;;;;;;22.10;53.40;;;;;;6336729;27;20544;-45
2021/12/30 03:55:31;;;;;;;;;;;22.40;53.60;;;;;;6326242;27;20710;-43
2021/12/30 03:58:32;;;;;;;;;;;22.10;53.40;;;;;;6305788;27;19956;-43
2021/12/30 04:01:33;;;;;;;;;;;22.00;53.40;;;;;;6336702;27;20450;-44
2021/12/30 04:04:35;;;;;;;;;;;22.30;53.60;;;;;;6327987;27;19927;-44
2021/12/30 04:07:37;;;;;;;;;;;22.20;53.50;;;;;;6334604;27;19958;-45
2021/12/30 04:10:39;;;;;;;;;;;22.00;53.40;;;;;;6342685;27;20836;-44
2021/12/30 04:13:40;;;;;;;;;;;22.00;53.40;;;;;;6319812;27;20786;-43
2021/12/30 04:16:42;;;;;;;;;;;22.20;53.50;;;;;;6318135;27;19923;-43
2021/12/30 04:19:43;;;;;;;;;;;22.30;53.60;;;;;;6319683;27;20042;-43
2021/12/30 04:22:46;;;;;;;;;;;22.10;53.40;;;;;;6333162;27;20341;-44
2021/12/30 04:25:49;;;;;;;;;;;22.60;53.70;;;;;;6341946;27;20835;-45
2021/12/30 04:28:50;;;;;;;;;;;22.30;53.50;;;;;;6327366;27;19923;-44
2021/12/30 04:31:52;;;;;;;;;;;22.10;53.50;;;;;;6326533;27;19935;-44
2021/12/30 04:34:53;;;;;;;;;;;22.10;53.40;;;;;;6324353;27;19989;-44
2021/12/30 04:37:55;;;;;;;;;;;22.20;53.50;;;;;;6323491;27;21218;-44
2021/12/30 04:40:57;;;;;;;;;;;22.10;53.40;;;;;;6310300;27;19950;-47
2021/12/30 04:43:59;;;;;;;;;;;22.00;53.50;;;;;;6325414;27;19970;-43
2021/12/30 04:47:00;;;;;;;;;;;22.20;53.40;;;;;;6320611;27;20030;-45
2021/12/30 04:50:02;;;;;;;;;;;22.10;53.40;;;;;;6327286;27;19967;-43
2021/12/30 04:53:04;;;;;;;;;;;22.50;53.60;;;;;;6327488;27;20095;-43
2021/12/30 04:56:05;;;;;;;;;;;22.10;53.40;;;;;;6327951;27;19958;-44
2021/12/30 04:59:07;;;;;;;;;;;22.20;53.40;;;;;;6344707;27;19966;-45
2021/12/30 05:02:08;;;;;;;;;;;22.00;53.40;;;;;;6344545;27;20239;-44
2021/12/30 05:05:09;;;;;;;;;;;22.60;53.70;;;;;;6339695;27;20072;-44
2021/12/30 05:08:12;;;;;;;;;;;22.10;53.40;;;;;;6345917;27;19983;-45
2021/12/30 05:11:14;;;;;;;;;;;21.90;53.90;;;;;;6330891;27;20011;-47
2021/12/30 05:14:17;;;;;;;;;;;22.40;53.50;;;;;;6316002;27;20033;-44
2021/12/30 05:17:18;;;;;;;;;;;22.10;53.40;;;;;;6324966;27;20418;-44
2021/12/30 05:20:20;;;;;;;;;;;22.10;53.40;;;;;;6336243;27;20062;-44
2021/12/30 05:23:22;;;;;;;;;;;22.40;54.10;;;;;;6342142;27;20806;-46
2021/12/30 05:26:27;;;;;;;;;;;22.60;53.60;;;;;;6334907;27;20041;-44
2021/12/30 05:29:28;;;;;;;;;;;22.40;53.50;;;;;;6326047;27;19967;-45
2021/12/30 05:32:29;;;;;;;;;;;22.30;53.50;;;;;;6325324;27;19959;-44
2021/12/30 05:35:31;;;;;;;;;;;22.30;53.50;;;;;;6338212;27;19927;-44
2021/12/30 05:38:33;;;;;;;;;;;22.00;53.30;;;;;;6342540;27;20050;-44
2021/12/30 05:41:34;;;;;;;;;;;22.40;53.50;;;;;;6304272;27;19927;-43
2021/12/30 05:44:36;;;;;;;;;;;22.10;53.40;;;;;;6322398;27;20030;-44
2021/12/30 05:47:37;;;;;;;;;;;22.50;53.60;;;;;;6317692;27;20042;-44
2021/12/30 05:50:39;;;;;;;;;;;22.40;53.50;;;;;;6313199;27;21126;-44
2021/12/30 05:53:41;;;;;;;;;;;22.30;53.50;;;;;;6329952;27;19933;-44
2021/12/30 05:56:43;;;;;;;;;;;22.60;53.60;;;;;;6333788;27;20010;-43
2021/12/30 05:59:44;;;;;;;;;;;22.40;53.50;;;;;;6313059;27;20059;-44
2021/12/30 06:02:46;;;;;;;;;;;22.10;53.40;;;;;;6327853;27;19962;-44
2021/12/30 06:05:48;;;;;;;;;;;22.20;53.40;;;;;;6303152;27;20040;-49
2021/12/30 06:08:50;;;;;;;;;;;22.40;53.50;;;;;;6325329;27;20005;-44
2021/12/30 06:11:52;;;;;;;;;;;22.40;53.60;;;;;;6342651;27;19923;-45
2021/12/30 06:14:53;;;;;;;;;;;22.00;53.30;;;;;;6329431;27;20823;-47
2021/12/30 06:17:55;;;;;;;;;;;22.60;53.60;;;;;;6320260;27;19923;-44
2021/12/30 06:20:56;;;;;;;;;;;22.10;53.40;;;;;;6319829;27;20998;-44
2021/12/30 06:23:58;;;;;;;;;;;22.40;53.60;;;;;;6318986;27;20863;-44
2021/12/30 06:26:59;;;;;;;;;;;22.60;53.60;;;;;;6307175;27;20255;-45
2021/12/30 06:30:01;;;;;;;;;;;22.50;53.60;;;;;;6328433;27;20240;-44
2021/12/30 06:33:02;;;;;;;;;;;22.10;53.40;;;;;;6302759;27;20006;-43
2021/12/30 06:36:04;;;;;;;;;;;22.20;53.50;;;;;;6317768;27;20701;-44
2021/12/30 06:39:06;;;;;;;;;;;22.20;53.80;;;;;;6324322;27;19923;-44
2021/12/30 06:42:08;;;;;;;;;;;22.70;53.70;;;;;;6323181;27;20005;-45
2021/12/30 06:45:10;;;;;;;;;;;21.90;53.20;;;;;;6316739;27;21553;-44
2021/12/30 06:48:15;;;;;;;;;;;22.50;53.40;;;;;;6322755;27;19927;-44
2021/12/30 06:51:18;;;;;;;;;;;22.10;53.20;;;;;;6315108;27;20311;-44
2021/12/30 06:54:20;;;;;;;;;;;22.40;53.90;;;;;;6314656;27;19928;-44
2021/12/30 06:57:21;;;;;;;;;;;22.50;53.30;;;;;;6306816;27;20508;-44
2021/12/30 07:00:23;;;;;;;;;;;22.40;53.20;;;;;;6310653;27;19999;-44
2021/12/30 07:03:24;;;;;;;;;;;22.30;53.20;;;;;;6299593;27;19924;-44
2021/12/30 07:06:25;;;;;;;;;;;22.40;53.20;;;;;;6316710;27;19934;-48
2021/12/30 07:09:27;;;;;;;;;;;22.20;53.10;;;;;;6324654;27;20045;-47
2021/12/30 07:12:29;;;;;;;;;;;22.40;53.20;;;;;;6306480;27;20733;-44
2021/12/30 07:15:30;;;;;;;;;;;22.30;53.10;;;;;;6299754;27;20123;-44
2021/12/30 07:18:32;;;;;;;;;;;22.60;53.30;;;;;;6300815;27;19948;-44
2021/12/30 07:21:33;;;;;;;;;;;22.20;53.20;;;;;;6301853;27;20813;-45
2021/12/30 07:24:35;;;;;;;;;;;22.40;53.20;;;;;;6314698;27;19931;-48
2021/12/30 07:27:36;;;;;;;;;;;22.70;53.90;;;;;;6307820;27;20045;-44
2021/12/30 07:30:38;;;;;;;;;;;22.20;53.00;;;;;;6298754;27;19923;-48
2021/12/30 07:33:39;;;;;;;;;;;22.20;53.10;;;;;;6293859;27;19966;-43
2021/12/30 07:36:40;;;;;;;;;;;22.10;53.10;;;;;;6290077;27;19927;-44
2021/12/30 07:39:43;;;;;;;;;;;22.20;53.20;;;;;;6275423;27;20791;-46
2021/12/30 07:42:44;;;;;;;;;;;23.00;53.50;;;;;;6281489;27;19967;-44
2021/12/30 07:45:45;;;;;;;;;;;22.20;53.20;;;;;;6271069;27;19934;-44
2021/12/30 07:48:47;;;;;;;;;;;22.50;53.20;;;;;;6271137;27;20049;-44
2021/12/30 07:51:48;;;;;;;;;;;22.20;53.10;;;;;;6264561;27;19927;-47
2021/12/30 07:54:50;;;;;;;;;;;22.60;53.30;;;;;;6267687;27;20754;-44
2021/12/30 07:57:55;;;;;;;;;;;22.40;53.10;;;;;;6264698;27;20003;-45
2021/12/30 08:00:56;;;;;;;;;;;22.20;52.90;;;;;;6253044;27;19935;-44
2021/12/30 08:03:58;;;;;;;;;;;22.60;53.20;;;;;;6256978;27;26625;-46
2021/12/30 08:06:59;;;;;;;;;;;22.30;53.00;;;;;;6258044;27;21240;-51
2021/12/30 08:10:01;;;;;;;;;;;22.50;53.10;;;;;;6258990;27;20034;-45
2021/12/30 08:13:03;;;;;;;;;;;22.30;53.00;;;;;;6256914;27;19927;-48
2021/12/30 08:16:05;;;;;;;;;;;22.70;53.00;;;;;;6259797;27;20024;-43
2021/12/30 08:19:08;;;;;;;;;;;22.30;52.70;;;;;;6262969;27;19927;-45
2021/12/30 08:22:10;;;;;;;;;;;22.40;52.60;;;;;;6227310;27;20919;-43
2021/12/30 08:25:17;;;;;;;;;;;22.70;52.90;;;;;;6249776;27;20084;-42
2021/12/30 08:28:18;;;;;;;;;;;22.80;53.20;;;;;;6244882;27;20000;-42
2021/12/30 08:31:20;;;;;;;;;;;22.70;52.90;;;;;;6246987;27;20019;-42
2021/12/30 08:34:22;;;;;;;;;;;22.50;52.80;;;;;;6235153;27;19996;-42
2021/12/30 08:37:23;;;;;;;;;;;22.80;52.80;;;;;;6241513;27;19934;-43
2021/12/30 08:40:25;;;;;;;;;;;22.50;52.70;;;;;;6267142;27;19934;-43
2021/12/30 08:43:27;;;;;;;;;;;22.80;52.80;;;;;;6269190;27;20481;-42
2021/12/30 08:46:28;;;;;;;;;;;22.50;52.50;;;;;;6270507;27;19927;-48
2021/12/30 08:49:30;;;;;;;;;;;23.10;52.80;;;;;;6266624;27;20906;-43
2021/12/30 08:52:31;;;;;;;;;;;23.10;52.80;;;;;;6252853;27;19927;-43
2021/12/30 08:55:33;;;;;;;;;;;22.90;52.60;;;;;;6244367;27;19934;-43
2021/12/30 08:58:34;;;;;;;;;;;22.90;52.50;;;;;;6263576;27;19931;-45
2021/12/30 09:01:36;;;;;;;;;;;22.60;52.40;;;;;;6258053;27;19928;-43
2021/12/30 09:04:42;;;;;;;;;;;22.80;52.50;;;;;;6264505;27;20014;-44
2021/12/30 09:07:43;;;;;;;;;;;22.90;52.80;;;;;;6273952;27;20055;-44
2021/12/30 09:10:46;;;;;;;;;;;23.10;52.60;;;;;;6277007;27;19927;-43
2021/12/30 09:13:48;;;;;;;;;;;22.80;52.50;;;;;;6258427;27;19927;-43
2021/12/30 09:16:50;;;;;;;;;;;22.70;52.40;;;;;;6275801;27;19958;-43
2021/12/30 09:19:52;;;;;;;;;;;22.80;52.50;;;;;;6253542;27;20030;-43
2021/12/30 09:22:54;;;;;;;;;;;22.80;52.40;;;;;;6276254;27;20711;-43
2021/12/30 09:25:56;;;;;;;;;;;23.20;52.60;;;;;;6260893;27;22760;-45
2021/12/30 09:28:57;;;;;;;;;;;23.20;52.60;;;;;;6271040;27;19935;-44
2021/12/30 09:31:59;;;;;;;;;;;22.80;52.30;;;;;;6276311;27;19927;-43
2021/12/30 09:35:00;;;;;;;;;;;22.90;52.20;;;;;;6277760;27;20038;-42
2021/12/30 09:38:02;;;;;;;;;;;23.20;52.40;;;;;;6272786;27;19935;-42
2021/12/30 09:41:05;;;;;;;;;;;23.20;52.30;;;;;;6278596;27;21549;-43
2021/12/30 09:44:10;;;;;;;;;;;22.90;52.20;;;;;;6263390;27;19928;-43
2021/12/30 09:47:12;;;;;;;;;;;22.90;52.20;;;;;;6259817;27;19927;-43
2021/12/30 09:50:14;;;;;;;;;;;23.20;52.40;;;;;;6256943;27;19927;-43
2021/12/30 09:53:18;;;;;;;;;;;23.20;52.40;;;;;;6251585;27;20034;-43
2021/12/30 09:56:20;;;;;;;;;;;23.10;52.60;;;;;;6241579;27;19935;-44
2021/12/30 09:59:23;;;;;;;;;;;23.10;52.40;;;;;;6256716;27;21419;-43
2021/12/30 10:02:25;;;;;;;;;;;22.70;52.10;;;;;;6234789;27;20279;-43
2021/12/30 10:05:28;;;;;;;;;;;23.20;52.40;;;;;;6259003;27;19934;-43
2021/12/30 10:08:29;;;;;;;;;;;23.30;52.40;;;;;;6247159;27;19927;-43
2021/12/30 10:11:42;;;;;;;;;;;23.30;52.40;;;;;;6245537;27;19981;-42
2021/12/30 10:14:52;;;;;;;;;;;22.80;52.00;;;;;;6266378;27;21275;-44
2021/12/30 10:17:55;;;;;;;;;;;23.00;52.10;;;;;;6278460;27;19927;-42
2021/12/30 10:20:57;;;;;;;;;;;23.20;52.20;;;;;;6270210;27;19931;-42
2021/12/30 10:23:59;;;;;;;;;;;23.00;52.00;;;;;;6254535;27;19935;-43
2021/12/30 10:27:01;;;;;;;;;;;23.40;52.30;;;;;;6262807;27;20012;-42
2021/12/30 10:30:05;;;;;;;;;;;23.20;52.10;;;;;;6265268;27;20061;-42
2021/12/30 10:33:10;;;;;;;;;;;23.20;52.10;;;;;;6258538;27;20052;-42
2021/12/30 10:36:13;;;;;;;;;;;23.50;52.20;;;;;;6248888;27;20892;-42
2021/12/30 10:39:17;;;;;;;;;;;23.50;52.20;;;;;;6231075;27;21998;-42
2021/12/30 10:42:21;;;;;;;;;;;23.20;52.00;;;;;;6262827;27;19923;-42
2021/12/30 10:45:23;;;;;;;;;;;23.20;52.00;;;;;;6265589;27;19927;-43
2021/12/30 10:48:24;;;;;;;;;;;23.20;51.90;;;;;;6264708;27;19934;-42
2021/12/30 10:51:28;;;;;;;;;;;23.60;52.20;;;;;;6269426;27;19948;-42
2021/12/30 10:54:31;;;;;;;;;;;23.30;52.00;;;;;;6272204;27;20740;-42
2021/12/30 10:57:33;;;;;;;;;;;23.40;52.00;;;;;;6243538;27;19927;-42
2021/12/30 11:00:35;;;;;;;;;;;23.50;52.20;;;;;;6264175;27;20876;-41
2021/12/30 11:03:36;;;;;;;;;;;23.50;52.20;;;;;;6276863;27;19927;-42
2021/12/30 11:06:38;;;;;;;;;;;23.20;52.00;;;;;;6266342;27;20791;-43
2021/12/30 11:09:44;;;;;;;;;;;23.10;52.00;;;;;;6261167;27;19927;-45
2021/12/30 11:12:47;;;;;;;;;;;23.30;52.20;;;;;;6263505;27;19931;-42
2021/12/30 11:16:01;;;;;;;;;;;23.40;52.40;;;;;;6265515;27;19934;-43
2021/12/30 11:19:07;;;;;;;;;;;23.30;52.40;;;;;;6277571;27;21929;-42
2021/12/30 11:22:10;;;;;;;;;;;23.40;52.50;;;;;;6255564;27;20042;-42
2021/12/30 11:25:12;;;;;;;;;;;23.50;52.60;;;;;;6251068;27;19928;-42
2021/12/30 11:28:14;;;;;;;;;;;23.20;52.50;;;;;;6240342;27;20121;-42
2021/12/30 11:31:16;;;;;;;;;;;23.00;52.40;;;;;;6264555;27;20042;-42
2021/12/30 11:34:18;;;;;;;;;;;23.20;52.70;;;;;;6275532;27;19934;-43
2021/12/30 11:37:20;;;;;;;;;;;22.80;52.40;;;;;;6281714;27;19935;-43
2021/12/30 11:40:23;;;;;;;;;;;23.30;52.70;;;;;;6276367;27;21376;-42
2021/12/30 11:43:40;;;;;;;;;;;23.00;52.60;;;;;;6251570;27;20042;-42
2021/12/30 11:46:42;;;;;;;;;;;23.20;52.70;;;;;;6273671;27;20046;-42
2021/12/30 11:49:52;;;;;;;;;;;23.00;52.60;;;;;;6277969;27;19932;-44
2021/12/30 11:52:58;;;;;;;;;;;23.20;52.70;;;;;;6272017;27;20677;-42
2021/12/30 11:56:00;;;;;;;;;;;23.50;52.80;;;;;;6253847;27;21347;-42
2021/12/30 11:59:02;;;;;;;;;;;23.10;52.70;;;;;;6259343;27;19977;-42
2021/12/30 12:02:25;;;;;;;;;;;22.90;52.60;;;;;;6279338;27;19927;-42
2021/12/30 12:05:36;;;;;;;;;;;22.90;52.60;;;;;;6257923;27;20821;-43
2021/12/30 12:08:41;;;;;;;;;;;23.00;52.70;;;;;;6280420;27;20003;-43
2021/12/30 12:11:46;;;;;;;;;;;23.30;52.80;;;;;;6258287;27;19927;-44
2021/12/30 12:14:55;;;;;;;;;;;23.00;52.60;;;;;;6270254;27;19953;-42
2021/12/30 12:18:09;;;;;;;;;;;23.10;52.70;;;;;;6268618;27;19927;-42
2021/12/30 12:21:10;;;;;;;;;;;23.20;52.90;;;;;;6270158;27;19935;-43
2021/12/30 12:24:20;;;;;;;;;;;23.30;52.90;;;;;;6270839;27;20058;-42
2021/12/30 12:27:30;;;;;;;;;;;23.40;52.90;;;;;;6269645;27;19960;-42
2021/12/30 12:30:33;;;;;;;;;;;23.30;52.90;;;;;;6276943;27;20009;-44
2021/12/30 12:33:35;;;;;;;;;;;22.90;52.70;;;;;;6259893;27;19934;-45
2021/12/30 12:36:38;;;;;;;;;;;23.00;52.80;;;;;;6264598;27;20031;-42
2021/12/30 12:39:39;;;;;;;;;;;23.00;52.80;;;;;;6262601;27;20050;-42
2021/12/30 12:42:55;;;;;;;;;;;22.90;52.70;;;;;;6261752;27;19996;-41
2021/12/30 12:45:59;;;;;;;;;;;22.80;52.70;;;;;;6253702;27;19926;-43
2021/12/30 12:49:06;;;;;;;;;;;23.30;53.00;;;;;;6246797;27;20742;-41
2021/12/30 12:52:07;;;;;;;;;;;22.90;52.60;;;;;;6260431;27;19927;-45
2021/12/30 12:55:11;;;;;;;;;;;23.30;52.80;;;;;;6255972;27;20817;-42
2021/12/30 12:58:13;;;;;;;;;;;23.50;52.70;;;;;;6248665;27;20104;-41
2021/12/30 13:01:16;;;;;;;;;;;23.40;52.60;;;;;;6261407;27;40153;-42
2021/12/30 13:04:18;;;;;;;;;;;23.10;52.40;;;;;;6257399;27;22188;-43
2021/12/30 13:07:21;;;;;;;;;;;23.20;52.50;;;;;;6263096;27;19934;-43
2021/12/30 13:10:23;;;;;;;;;;;23.40;52.60;;;;;;6256969;27;20028;-42
2021/12/30 13:13:28;;;;;;;;;;;23.00;52.30;;;;;;6273110;27;19933;-43
2021/12/30 13:16:31;;;;;;;;;;;23.30;52.40;;;;;;6270320;27;20053;-43
2021/12/30 13:19:33;;;;;;;;;;;23.10;52.20;;;;;;6257261;27;20063;-42
2021/12/30 13:22:35;;;;;;;;;;;23.30;52.20;;;;;;6229117;27;20205;-42
2021/12/30 13:25:36;;;;;;;;;;;23.20;52.10;;;;;;6265751;27;20024;-42
2021/12/30 13:28:45;;;;;;;;;;;23.20;52.10;;;;;;6269607;27;19940;-42
2021/12/30 13:31:56;;;;;;;;;;;23.40;52.10;;;;;;6261030;27;19934;-42
2021/12/30 13:35:02;;;;;;;;;;;23.60;52.20;;;;;;6247622;27;21178;-42
2021/12/30 13:38:05;;;;;;;;;;;23.30;52.10;;;;;;6253895;27;20057;-42
2021/12/30 13:41:11;;;;;;;;;;;23.60;52.30;;;;;;6278245;27;19934;-46
2021/12/30 13:44:12;;;;;;;;;;;23.40;52.10;;;;;;6255572;27;19927;-41
2021/12/30 13:47:15;;;;;;;;;;;23.20;51.90;;;;;;6259383;27;19927;-42
2021/12/30 13:50:18;;;;;;;;;;;23.60;52.10;;;;;;6269866;27;19966;-42
2021/12/30 13:53:21;;;;;;;;;;;23.30;52.00;;;;;;6257674;27;19927;-43
2021/12/30 13:56:23;;;;;;;;;;;23.40;52.10;;;;;;6255203;27;20050;-44
2021/12/30 13:59:30;;;;;;;;;;;23.40;52.00;;;;;;6276551;27;20058;-56
2021/12/30 14:02:31;;;;;;;;;;;23.70;52.80;;;;;;6237052;27;19928;-40
2021/12/30 14:05:34;;;;;;;;;;;23.70;52.80;;;;;;6261591;27;19962;-45
2021/12/30 14:08:36;;;;;;;;;;;23.70;52.20;;;;;;6261822;27;19927;-46
2021/12/30 14:11:40;;;;;;;;;;;23.80;52.20;;;;;;6277948;27;20003;-41
2021/12/30 14:14:41;;;;;;;;;;;23.40;52.00;;;;;;6268361;27;19927;-45
2021/12/30 14:17:44;;;;;;;;;;;23.40;52.00;;;;;;6267677;27;20854;-43
2021/12/30 14:20:45;;;;;;;;;;;23.50;51.90;;;;;;6280204;27;20716;-42
2021/12/30 14:23:48;;;;;;;;;;;23.50;52.00;;;;;;6276879;27;19980;-43
2021/12/30 14:26:50;;;;;;;;;;;23.70;52.10;;;;;;6270884;27;19943;-42
2021/12/30 14:29:52;;;;;;;;;;;23.60;52.00;;;;;;6262456;27;19928;-42
2021/12/30 14:32:54;;;;;;;;;;;23.70;52.10;;;;;;6264976;27;21486;-44
2021/12/30 14:36:06;;;;;;;;;;;24.40;52.50;;;;;;6269274;27;19927;-44
2021/12/30 14:39:22;;;;;;;;;;;23.50;52.00;;;;;;6263920;27;19934;-42
2021/12/30 14:42:26;;;;;;;;;;;23.70;52.10;;;;;;6241242;27;20965;-42
2021/12/30 14:45:34;;;;;;;;;;;23.70;52.10;;;;;;6276842;27;19930;-42
2021/12/30 14:48:37;;;;;;;;;;;23.60;52.00;;;;;;6268160;27;19934;-44
2021/12/30 14:51:38;;;;;;;;;;;23.70;52.10;;;;;;6259415;27;19927;-44
2021/12/30 14:54:40;;;;;;;;;;;23.70;52.00;;;;;;6272387;27;19934;-42
2021/12/30 14:57:41;;;;;;;;;;;23.80;52.10;;;;;;6272663;27;20681;-42
2021/12/30 15:00:44;;;;;;;;;;;23.60;52.50;;;;;;6236304;27;19933;-43
2021/12/30 15:03:47;;;;;;;;;;;23.60;51.90;;;;;;6270054;27;19934;-42
2021/12/30 15:06:48;;;;;;;;;;;23.60;51.90;;;;;;6269928;27;20012;-43
2021/12/30 15:09:51;;;;;;;;;;;23.90;52.10;;;;;;6273558;27;19952;-42
2021/12/30 15:12:53;;;;;;;;;;;23.90;52.00;;;;;;6269808;27;20023;-46
2021/12/30 15:15:55;;;;;;;;;;;23.70;52.00;;;;;;6247262;27;20057;-43
2021/12/30 15:18:57;;;;;;;;;;;23.80;52.00;;;;;;6267405;27;19934;-42
2021/12/30 15:21:58;;;;;;;;;;;23.70;51.90;;;;;;6267134;27;19964;-41
2021/12/30 15:25:00;;;;;;;;;;;23.90;52.10;;;;;;6258604;27;20963;-46
2021/12/30 15:28:02;;;;;;;;;;;24.10;52.10;;;;;;6265478;27;19931;-47
2021/12/30 15:31:03;;;;;;;;;;;23.60;51.90;;;;;;6266568;27;19995;-42
2021/12/30 15:34:05;;;;;;;;;;;23.60;51.90;;;;;;6265112;27;19927;-42
2021/12/30 15:37:08;;;;;;;;;;;23.90;52.00;;;;;;6277828;27;20778;-43
2021/12/30 15:40:11;;;;;;;;;;;24.20;52.10;;;;;;6277209;27;21002;-42
2021/12/30 15:43:13;;;;;;;;;;;23.60;52.40;;;;;;6271129;27;20007;-44
2021/12/30 15:46:15;;;;;;;;;;;23.80;51.90;;;;;;6278096;27;19952;-42
2021/12/30 15:49:17;;;;;;;;;;;23.60;51.80;;;;;;6247484;27;20680;-42
2021/12/30 15:52:19;;;;;;;;;;;23.60;51.90;;;;;;6266995;27;19969;-42
2021/12/30 15:55:22;;;;;;;;;;;23.70;51.90;;;;;;6271973;27;19964;-45
2021/12/30 15:58:24;;;;;;;;;;;23.80;51.90;;;;;;6259964;27;20637;-42
2021/12/30 16:01:25;;;;;;;;;;;23.70;51.90;;;;;;6270276;27;20949;-43
2021/12/30 16:04:28;;;;;;;;;;;23.50;51.80;;;;;;6274502;27;20919;-46
2021/12/30 16:07:30;;;;;;;;;;;23.70;51.90;;;;;;6269763;27;20804;-44
2021/12/30 16:10:31;;;;;;;;;;;23.70;51.90;;;;;;6278138;27;19966;-46
2021/12/30 16:13:51;;;;;;;;;;;23.80;51.90;;;;;;6280361;27;21261;-42
2021/12/30 16:16:52;;;;;;;;;;;23.90;51.80;;;;;;6266319;27;20816;-42
2021/12/30 16:19:54;;;;;;;;;;;23.70;51.80;;;;;;6284606;27;19927;-42
2021/12/30 16:22:56;;;;;;;;;;;23.80;51.80;;;;;;6283564;27;19990;-42
2021/12/30 16:25:58;;;;;;;;;;;23.60;51.70;;;;;;6285474;27;19980;-43
2021/12/30 16:29:01;;;;;;;;;;;23.70;51.80;;;;;;6280809;27;20153;-43
2021/12/30 16:32:02;;;;;;;;;;;23.80;51.80;;;;;;6255834;27;20232;-43
2021/12/30 16:35:05;;;;;;;;;;;23.70;51.90;;;;;;6287131;27;19934;-46
2021/12/30 16:38:08;;;;;;;;;;;24.00;52.00;;;;;;6279189;27;20028;-45
2021/12/30 16:41:10;;;;;;;;;;;23.70;52.00;;;;;;6273509;27;20008;-46
2021/12/30 16:44:11;;;;;;;;;;;23.10;51.80;;;;;;6265763;27;20012;-44
2021/12/30 16:47:15;;;;;;;;;;;24.20;52.30;;;;;;6263821;27;20000;-43
2021/12/30 16:50:17;;;;;;;;;;;23.80;52.10;;;;;;6233432;27;20358;-45
2021/12/30 16:53:19;;;;;;;;;;;23.70;52.10;;;;;;6272975;27;20302;-44
2021/12/30 16:56:22;;;;;;;;;;;23.50;52.10;;;;;;6278605;27;20195;-43
2021/12/30 16:59:23;;;;;;;;;;;23.50;52.10;;;;;;6271264;27;20096;-47
2021/12/30 17:02:25;;;;;;;;;;;23.70;52.20;;;;;;6298422;27;20137;-45
2021/12/30 17:05:27;;;;;;;;;;;23.50;52.30;;;;;;6290915;27;19928;-46
2021/12/30 17:08:30;;;;;;;;;;;23.80;52.40;;;;;;6289402;27;20214;-45
2021/12/30 17:11:31;;;;;;;;;;;23.50;52.30;;;;;;6292987;27;20044;-43
2021/12/30 17:14:32;;;;;;;;;;;23.60;52.40;;;;;;6270333;27;20155;-43
2021/12/30 17:17:34;;;;;;;;;;;23.80;52.50;;;;;;6259567;27;20134;-43
2021/12/30 17:20:36;;;;;;;;;;;23.60;52.50;;;;;;6267567;27;20312;-43
2021/12/30 17:23:38;;;;;;;;;;;23.40;52.40;;;;;;6287064;27;19931;-43
2021/12/30 17:26:40;;;;;;;;;;;23.80;52.70;;;;;;6284837;27;19930;-42
2021/12/30 17:29:42;;;;;;;;;;;23.80;52.70;;;;;;6255047;27;19973;-46
2021/12/30 17:32:43;;;;;;;;;;;23.40;52.60;;;;;;6286423;27;19927;-43
2021/12/30 17:35:45;;;;;;;;;;;23.20;52.50;;;;;;6294766;27;20170;-43
2021/12/30 17:38:47;;;;;;;;;;;23.50;52.60;;;;;;6300045;27;20337;-43
2021/12/30 17:41:48;;;;;;;;;;;23.60;52.80;;;;;;6292582;27;20046;-43